createdAt,value
2017-10-11T00:01:36.696Z,1.10
2017-10-11T00:01:52.317Z,13.50
2017-10-11T00:04:07.418Z,0.80
2017-10-11T00:04:28.068Z,7.67
2017-10-11T00:06:38.844Z,1.57
2017-10-11T00:06:56.755Z,8.40
2017-10-11T00:09:08.688Z,1.20
2017-10-11T00:09:25.450Z,10.27
2017-10-11T00:11:38.842Z,0.90
2017-10-11T00:11:54.180Z,8.07
2017-10-11T00:14:08.869Z,1.30
2017-10-11T00:14:25.468Z,8.20
2017-10-11T00:16:38.762Z,1.17
2017-10-11T00:16:54.170Z,7.37
2017-10-11T00:19:08.955Z,1.10
2017-10-11T00:19:22.895Z,6.20
2017-10-11T00:21:39.327Z,1.10
2017-10-11T00:21:52.336Z,8.83
2017-10-11T00:24:09.420Z,0.90
2017-10-11T00:24:21.032Z,6.33
2017-10-11T00:26:42.290Z,0.97
2017-10-11T00:26:49.711Z,5.83
2017-10-11T00:29:12.367Z,1.10
2017-10-11T00:29:24.680Z,4.80
2017-10-11T00:31:44.629Z,1.97
2017-10-11T00:31:53.376Z,4.60
2017-10-11T00:34:15.078Z,1.03
2017-10-11T00:34:22.087Z,6.73
2017-10-11T00:36:50.769Z,3.73
2017-10-11T00:36:57.321Z,1.67
2017-10-11T00:39:19.449Z,5.93
2017-10-11T00:39:27.904Z,0.80
2017-10-11T00:41:48.908Z,3.13
2017-10-11T00:41:58.497Z,0.93
2017-10-11T00:44:17.602Z,6.00
2017-10-11T00:44:28.023Z,0.90
2017-10-11T00:46:46.319Z,3.03
2017-10-11T00:46:58.381Z,0.93
2017-10-11T00:49:15.776Z,4.87
2017-10-11T00:49:28.961Z,1.00
2017-10-11T00:51:44.464Z,3.53
2017-10-11T00:51:58.897Z,0.93
2017-10-11T00:54:13.171Z,5.43
2017-10-11T00:54:29.129Z,0.87
2017-10-11T00:56:41.885Z,4.40
2017-10-11T00:56:59.488Z,1.10
2017-10-11T00:59:11.339Z,2.67
2017-10-11T00:59:29.670Z,1.00
2017-10-11T01:01:40.042Z,5.20
2017-10-11T01:01:59.481Z,1.77
2017-10-11T01:04:08.748Z,6.20
2017-10-11T01:04:29.269Z,0.90
2017-10-11T01:06:43.719Z,5.30
2017-10-11T01:06:58.870Z,0.93
2017-10-11T01:09:12.427Z,4.33
2017-10-11T01:09:29.125Z,0.97
2017-10-11T01:11:41.120Z,5.90
2017-10-11T01:11:59.101Z,0.90
2017-10-11T01:14:09.809Z,7.60
2017-10-11T01:14:29.278Z,0.80
2017-10-11T01:16:38.508Z,13.40
2017-10-11T01:17:01.717Z,1.37
2017-10-11T01:19:07.193Z,8.30
2017-10-11T01:19:34.058Z,0.60
2017-10-11T01:21:35.888Z,7.70
2017-10-11T01:22:04.223Z,0.70
2017-10-11T01:24:04.602Z,7.37
2017-10-11T01:24:34.275Z,0.60
2017-10-11T01:26:33.302Z,7.70
2017-10-11T01:27:04.090Z,0.60
2017-10-11T01:29:02.965Z,7.57
2017-10-11T01:29:34.242Z,0.60
2017-10-11T01:31:31.652Z,6.30
2017-10-11T01:32:04.063Z,0.60
2017-10-11T01:34:00.345Z,6.30
2017-10-11T01:34:34.079Z,0.57
2017-10-11T01:36:31.889Z,7.23
2017-10-11T01:37:03.981Z,0.80
2017-10-11T01:39:00.884Z,5.47
2017-10-11T01:39:33.665Z,0.50
2017-10-11T01:41:35.803Z,5.50
2017-10-11T01:42:03.297Z,0.57
2017-10-11T01:44:04.512Z,3.33
2017-10-11T01:44:33.492Z,0.50
2017-10-11T01:46:34.728Z,2.23
2017-10-11T01:47:03.129Z,0.50
2017-10-11T01:49:04.237Z,3.67
2017-10-11T01:49:32.975Z,0.50
2017-10-11T01:51:33.703Z,3.40
2017-10-11T01:52:03.222Z,0.60
2017-10-11T01:54:02.371Z,4.20
2017-10-11T01:54:32.912Z,0.60
2017-10-11T01:56:31.056Z,6.50
2017-10-11T01:57:03.131Z,0.47
2017-10-11T01:58:59.740Z,9.67
2017-10-11T01:59:33.020Z,0.70
2017-10-11T02:01:28.432Z,7.07
2017-10-11T02:02:04.844Z,0.50
2017-10-11T02:03:57.117Z,6.60
2017-10-11T02:04:36.239Z,0.50
2017-10-11T02:06:25.817Z,6.87
2017-10-11T02:07:06.295Z,0.60
2017-10-11T02:08:54.509Z,8.30
2017-10-11T02:09:35.912Z,1.33
2017-10-11T02:11:24.862Z,4.27
2017-10-11T02:12:16.038Z,0.80
2017-10-11T02:13:53.543Z,7.00
2017-10-11T02:14:47.429Z,0.60
2017-10-11T02:16:22.996Z,6.20
2017-10-11T02:17:17.632Z,0.83
2017-10-11T02:18:51.708Z,7.57
2017-10-11T02:19:47.578Z,1.50
2017-10-11T02:21:21.999Z,7.30
2017-10-11T02:22:17.091Z,0.80
2017-10-11T02:23:50.684Z,7.00
2017-10-11T02:24:46.628Z,0.83
2017-10-11T02:26:19.390Z,13.23
2017-10-11T02:27:16.593Z,0.50
2017-10-11T02:28:48.978Z,5.60
2017-10-11T02:29:47.080Z,0.77
2017-10-11T02:31:18.460Z,7.70
2017-10-11T02:32:16.714Z,0.40
2017-10-11T02:33:47.144Z,6.00
2017-10-11T02:34:48.873Z,0.50
2017-10-11T02:36:15.871Z,8.23
2017-10-11T02:37:18.435Z,0.67
2017-10-11T02:38:44.554Z,3.33
2017-10-11T02:39:48.502Z,0.60
2017-10-11T02:41:13.230Z,3.63
2017-10-11T02:42:18.084Z,0.63
2017-10-11T02:43:41.957Z,5.90
2017-10-11T02:44:47.596Z,0.50
2017-10-11T02:46:10.640Z,10.80
2017-10-11T02:47:17.617Z,0.90
2017-10-11T02:48:39.350Z,3.90
2017-10-11T02:49:50.549Z,0.50
2017-10-11T02:51:08.800Z,4.40
2017-10-11T02:52:20.282Z,0.73
2017-10-11T02:53:37.510Z,4.20
2017-10-11T02:54:50.183Z,1.10
2017-10-11T02:56:06.196Z,7.37
2017-10-11T02:57:30.914Z,0.93
2017-10-11T02:58:35.794Z,6.70
2017-10-11T03:00:00.829Z,1.93
2017-10-11T03:01:04.509Z,7.90
2017-10-11T03:02:30.881Z,1.10
2017-10-11T03:03:33.956Z,5.63
2017-10-11T03:05:01.272Z,1.10
2017-10-11T03:06:03.539Z,6.07
2017-10-11T03:07:31.560Z,1.70
2017-10-11T03:08:39.207Z,5.10
2017-10-11T03:10:02.044Z,1.00
2017-10-11T03:11:07.910Z,7.23
2017-10-11T03:12:35.136Z,1.20
2017-10-11T03:13:36.603Z,3.83
2017-10-11T03:15:12.493Z,1.27
2017-10-11T03:16:05.295Z,2.53
2017-10-11T03:17:48.250Z,3.70
2017-10-11T03:18:35.603Z,2.90
2017-10-11T03:20:19.082Z,1.40
2017-10-11T03:21:05.916Z,3.50
2017-10-11T03:22:49.335Z,1.30
2017-10-11T03:23:40.899Z,7.60
2017-10-11T03:25:19.987Z,1.33
2017-10-11T03:26:09.585Z,7.17
2017-10-11T03:27:49.733Z,1.30
2017-10-11T03:28:38.292Z,7.57
2017-10-11T03:30:19.490Z,1.87
2017-10-11T03:31:06.973Z,3.93
2017-10-11T03:32:49.250Z,1.73
2017-10-11T03:33:37.284Z,4.40
2017-10-11T03:35:20.382Z,1.50
2017-10-11T03:36:05.971Z,9.00
2017-10-11T03:37:50.295Z,1.77
2017-10-11T03:38:35.424Z,5.87
2017-10-11T03:40:21.584Z,1.60
2017-10-11T03:41:04.111Z,6.60
2017-10-11T03:42:52.609Z,1.80
2017-10-11T03:43:33.736Z,9.73
2017-10-11T03:45:22.347Z,2.13
2017-10-11T03:46:02.448Z,3.93
2017-10-11T03:47:52.117Z,2.20
2017-10-11T03:48:36.236Z,6.73
2017-10-11T03:50:26.465Z,2.03
2017-10-11T03:51:04.984Z,5.80
2017-10-11T03:52:56.403Z,1.77
2017-10-11T03:53:33.659Z,7.60
2017-10-11T03:55:25.812Z,1.90
2017-10-11T03:56:02.340Z,9.07
2017-10-11T03:57:55.753Z,2.10
2017-10-11T03:58:31.033Z,9.57
2017-10-11T04:00:25.410Z,2.10
2017-10-11T04:00:59.720Z,12.70
2017-10-11T04:02:55.053Z,2.43
2017-10-11T04:03:28.420Z,11.87
2017-10-11T04:05:24.774Z,2.33
2017-10-11T04:05:57.128Z,9.40
2017-10-11T04:07:54.508Z,2.23
2017-10-11T04:08:25.839Z,11.17
2017-10-11T04:10:24.405Z,2.50
2017-10-11T04:10:56.567Z,10.60
2017-10-11T04:12:54.005Z,2.33
2017-10-11T04:13:26.132Z,7.63
2017-10-11T04:15:23.949Z,2.17
2017-10-11T04:16:01.019Z,5.90
2017-10-11T04:17:53.818Z,2.47
2017-10-11T04:18:30.500Z,4.90
2017-10-11T04:20:23.851Z,2.20
2017-10-11T04:21:05.324Z,4.10
2017-10-11T04:22:55.308Z,2.03
2017-10-11T04:23:35.040Z,3.83
2017-10-11T04:25:35.486Z,1.80
2017-10-11T04:26:10.021Z,12.97
2017-10-11T04:28:05.480Z,2.30
2017-10-11T04:28:44.880Z,2.97
2017-10-11T04:30:37.008Z,2.20
2017-10-11T04:31:13.574Z,3.27
2017-10-11T04:33:06.972Z,2.50
2017-10-11T04:33:42.261Z,13.30
2017-10-11T04:36:10.954Z,6.67
2017-10-11T04:38:39.639Z,8.63
2017-10-11T04:41:08.336Z,7.90
2017-10-11T04:43:43.244Z,6.10
2017-10-11T04:46:11.968Z,6.20
2017-10-11T04:48:41.429Z,9.40
2017-10-11T04:51:10.138Z,5.40
2017-10-11T04:53:38.856Z,5.37
2017-10-11T04:56:07.543Z,5.17
2017-10-11T04:58:36.246Z,4.10
2017-10-11T05:01:04.929Z,5.53
2017-10-11T05:03:34.544Z,6.20
2017-10-11T05:06:03.238Z,6.27
2017-10-11T05:08:31.936Z,3.70
2017-10-11T05:11:00.629Z,12.07
2017-10-11T05:13:29.316Z,6.07
2017-10-11T05:15:58.013Z,5.83
2017-10-11T05:18:32.832Z,10.73
2017-10-11T05:21:02.452Z,13.80
2017-10-11T05:23:31.176Z,7.17
2017-10-11T05:25:59.872Z,10.10
2017-10-11T05:28:30.475Z,10.07
2017-10-11T05:30:59.928Z,16.43
2017-10-11T05:33:28.628Z,9.20
2017-10-11T05:35:57.324Z,8.90
2017-10-11T05:38:32.081Z,7.67
2017-10-11T05:41:06.915Z,7.07
2017-10-11T05:43:36.389Z,5.60
2017-10-11T05:46:05.097Z,6.37
2017-10-11T05:48:34.568Z,8.80
2017-10-11T05:51:03.319Z,5.10
2017-10-11T05:53:31.999Z,6.67
2017-10-11T05:56:00.688Z,6.63
2017-10-11T05:58:29.371Z,6.10
2017-10-11T06:00:58.082Z,4.50
2017-10-11T06:03:26.782Z,4.80
2017-10-11T06:05:55.481Z,4.80
2017-10-11T06:08:30.502Z,5.07
2017-10-11T06:10:59.191Z,4.90
2017-10-11T06:13:34.218Z,13.80
2017-10-11T06:16:02.907Z,3.70
2017-10-11T06:18:31.634Z,3.37
2017-10-11T06:21:01.088Z,9.67
2017-10-11T06:23:29.783Z,4.50
2017-10-11T06:26:04.725Z,4.50
2017-10-11T06:28:39.688Z,6.23
2017-10-11T06:31:14.536Z,13.90
2017-10-11T06:33:43.508Z,8.50
2017-10-11T06:36:12.964Z,10.03
2017-10-11T06:38:47.816Z,6.50
2017-10-11T06:41:16.515Z,6.67
2017-10-11T06:43:45.966Z,5.60
2017-10-11T06:46:16.328Z,7.80
2017-10-11T06:48:45.012Z,12.80
2017-10-11T06:51:20.049Z,76.77
2017-10-11T06:53:48.735Z,17.60
2017-10-11T06:56:18.316Z,22.63
2017-10-11T06:58:47.007Z,14.57
2017-10-11T07:01:21.949Z,12.23
2017-10-11T07:03:50.636Z,12.53
2017-10-11T07:06:25.536Z,12.90
2017-10-11T07:08:54.248Z,10.70
2017-10-11T07:11:29.150Z,10.80
2017-10-11T07:13:57.864Z,7.63
2017-10-11T07:16:26.552Z,9.37
2017-10-11T07:18:55.235Z,6.50
2017-10-11T07:21:23.929Z,7.50
2017-10-11T07:23:52.606Z,8.60
2017-10-11T07:26:21.291Z,6.27
2017-10-11T07:28:49.971Z,10.33
2017-10-11T07:31:19.492Z,9.80
2017-10-11T07:33:48.180Z,12.03
2017-10-11T07:36:16.867Z,9.67
2017-10-11T07:38:45.552Z,7.97
2017-10-11T07:41:14.241Z,11.83
2017-10-11T07:43:49.231Z,9.47
2017-10-11T07:46:17.912Z,7.90
2017-10-11T07:48:46.595Z,6.80
2017-10-11T07:51:15.297Z,7.13
2017-10-11T07:53:43.979Z,7.70
2017-10-11T07:56:12.659Z,8.07
2017-10-11T07:58:47.500Z,6.40
2017-10-11T08:01:16.200Z,7.67
2017-10-11T08:03:44.892Z,5.90
2017-10-11T08:06:13.571Z,9.50
2017-10-11T08:08:48.363Z,6.37
2017-10-11T08:11:17.048Z,6.77
2017-10-11T08:13:45.758Z,5.30
2017-10-11T08:16:14.441Z,9.83
2017-10-11T08:18:43.122Z,9.13
2017-10-11T08:21:12.802Z,6.90
2017-10-11T08:23:41.501Z,7.33
2017-10-11T08:26:10.186Z,8.43
2017-10-11T08:28:38.872Z,9.97
2017-10-11T08:31:07.580Z,8.43
2017-10-11T08:33:37.189Z,8.23
2017-10-11T08:36:05.883Z,9.00
2017-10-11T08:38:41.529Z,5.80
2017-10-11T08:41:10.216Z,6.80
2017-10-11T08:43:38.923Z,6.30
2017-10-11T08:46:07.613Z,5.93
2017-10-11T08:48:36.295Z,5.97
2017-10-11T08:51:04.988Z,6.13
2017-10-11T08:53:33.668Z,5.63
2017-10-11T08:56:02.376Z,6.80
2017-10-11T08:58:31.833Z,7.67
2017-10-11T09:01:00.520Z,7.50
2017-10-11T09:03:35.436Z,5.23
2017-10-11T09:06:10.343Z,6.57
2017-10-11T09:08:45.245Z,6.17
2017-10-11T09:11:14.689Z,5.80
2017-10-11T09:13:49.674Z,5.30
2017-10-11T09:16:19.247Z,3.57
2017-10-11T09:18:47.933Z,6.80
2017-10-11T09:21:17.467Z,4.30
2017-10-11T09:23:46.945Z,2.87
2017-10-11T09:26:15.635Z,2.53
2017-10-11T09:28:44.325Z,2.57
2017-10-11T09:31:19.223Z,2.80
2017-10-11T09:33:47.911Z,2.37
2017-10-11T09:36:16.620Z,2.67
2017-10-11T09:38:45.304Z,2.30
2017-10-11T09:41:14.092Z,2.30
2017-10-11T09:43:42.760Z,3.50
2017-10-11T09:46:17.579Z,2.90
2017-10-11T09:48:46.264Z,2.03
2017-10-11T09:51:21.200Z,2.97
2017-10-11T09:53:49.904Z,3.13
2017-10-11T09:56:18.589Z,2.50
2017-10-11T09:58:48.124Z,2.80
2017-10-11T10:01:17.716Z,6.70
2017-10-11T10:03:52.642Z,2.50
2017-10-11T10:06:21.373Z,2.30
2017-10-11T10:08:50.048Z,2.60
2017-10-11T10:11:21.771Z,2.30
2017-10-11T10:13:50.449Z,2.30
2017-10-11T10:16:19.133Z,3.40
2017-10-11T10:18:54.141Z,2.97
2017-10-11T10:21:22.908Z,2.50
2017-10-11T10:23:57.820Z,2.40
2017-10-11T10:26:33.055Z,2.80
2017-10-11T10:29:01.896Z,2.40
2017-10-11T10:31:30.575Z,1.80
2017-10-11T10:34:05.057Z,1.90
2017-10-11T10:36:33.737Z,2.13
2017-10-11T10:39:02.412Z,2.47
2017-10-11T10:41:37.248Z,3.03
2017-10-11T10:44:12.069Z,3.23
2017-10-11T10:46:40.779Z,2.63
2017-10-11T10:49:10.232Z,2.63
2017-10-11T10:51:38.914Z,2.87
2017-10-11T10:54:07.605Z,1.63
2017-10-11T10:56:36.295Z,4.47
2017-10-11T10:59:04.997Z,2.93
2017-10-11T11:01:39.772Z,2.60
2017-10-11T11:04:14.584Z,2.20
2017-10-11T11:06:44.035Z,2.53
2017-10-11T11:09:18.876Z,3.90
2017-10-11T11:11:53.771Z,3.03
2017-10-11T11:14:23.364Z,2.87
2017-10-11T11:16:52.836Z,2.40
2017-10-11T11:19:22.325Z,2.77
2017-10-11T11:21:57.152Z,4.00
2017-10-11T11:24:25.843Z,3.63
2017-10-11T11:26:54.791Z,2.80
2017-10-11T11:29:25.249Z,4.13
2017-10-11T11:31:53.951Z,2.00
2017-10-11T11:34:28.867Z,2.07
2017-10-11T11:36:57.564Z,2.43
2017-10-11T11:39:32.452Z,2.57
2017-10-11T11:42:01.134Z,3.17
2017-10-11T11:44:29.819Z,3.17
2017-10-11T11:46:58.529Z,4.87
2017-10-11T11:49:33.461Z,2.60
2017-10-11T11:52:03.821Z,2.77
2017-10-11T11:54:32.497Z,3.27
2017-10-11T11:57:01.176Z,4.90
2017-10-11T11:59:29.881Z,4.23
2017-10-11T12:02:05.909Z,2.53
2017-10-11T12:04:39.470Z,1.93
2017-10-11T12:07:09.514Z,2.73
2017-10-11T12:09:38.356Z,2.50
2017-10-11T12:12:07.045Z,2.67
2017-10-11T12:14:35.715Z,2.50
2017-10-11T12:17:04.404Z,2.30
2017-10-11T12:19:40.025Z,2.23
2017-10-11T12:22:08.710Z,2.90
2017-10-11T12:24:37.396Z,2.63
2017-10-11T12:27:06.944Z,2.50
2017-10-11T12:29:36.394Z,2.57
2017-10-11T12:32:13.021Z,2.47
2017-10-11T12:34:42.644Z,3.67
2017-10-11T12:37:11.776Z,2.67
2017-10-11T12:39:40.480Z,2.10
2017-10-11T12:42:09.206Z,3.87
2017-10-11T12:44:38.663Z,3.20
2017-10-11T12:47:07.340Z,2.47
2017-10-11T12:49:42.204Z,2.50
2017-10-11T12:52:16.992Z,2.50
2017-10-11T12:54:46.524Z,3.63
2017-10-11T12:57:15.209Z,3.43
2017-10-11T12:59:50.869Z,3.10
2017-10-11T13:02:20.420Z,4.23
2017-10-11T13:04:49.305Z,3.77
2017-10-11T13:07:24.332Z,2.30
2017-10-11T13:09:53.008Z,2.97
2017-10-11T13:12:22.513Z,3.00
2017-10-11T13:14:51.974Z,1.80
2017-10-11T13:17:20.660Z,1.80
2017-10-11T13:19:55.676Z,2.17
2017-10-11T13:22:30.621Z,2.67
2017-10-11T13:24:59.301Z,1.90
2017-10-11T13:27:34.290Z,4.83
2017-10-11T13:30:02.984Z,2.60
2017-10-11T13:32:37.849Z,2.73
2017-10-11T13:35:12.684Z,2.20
2017-10-11T13:37:47.491Z,4.67
2017-10-11T13:40:16.176Z,3.90
2017-10-11T13:42:44.903Z,3.40
2017-10-11T13:45:19.926Z,3.00
2017-10-11T13:47:48.620Z,4.43
2017-10-11T13:50:24.344Z,2.33
2017-10-11T13:52:53.363Z,3.63
2017-10-11T13:55:22.052Z,2.90
2017-10-11T13:57:50.745Z,4.60
2017-10-11T14:00:19.432Z,5.70
2017-10-11T14:02:54.395Z,2.80
2017-10-11T14:05:23.937Z,3.37
2017-10-11T14:07:52.622Z,2.53
2017-10-11T14:10:27.560Z,5.20
2017-10-11T14:12:56.245Z,2.57
2017-10-11T14:15:24.930Z,2.60
2017-10-11T14:17:53.621Z,3.30
2017-10-11T14:20:28.134Z,2.17
2017-10-11T14:23:03.117Z,4.20
2017-10-11T14:25:32.559Z,3.10
2017-10-11T14:28:01.429Z,4.40
2017-10-11T14:30:30.214Z,3.33
2017-10-11T14:33:05.105Z,2.30
2017-10-11T14:35:33.807Z,2.20
2017-10-11T14:38:08.635Z,2.80
2017-10-11T14:40:38.080Z,2.20
2017-10-11T14:43:06.760Z,4.07
2017-10-11T14:45:37.115Z,2.20
2017-10-11T14:48:12.039Z,2.27
2017-10-11T14:50:41.752Z,4.40
2017-10-11T14:53:10.433Z,3.00
2017-10-11T14:55:39.120Z,2.53
2017-10-11T14:58:14.041Z,2.97
2017-10-11T15:00:43.662Z,4.50
2017-10-11T15:03:18.511Z,2.90
2017-10-11T15:05:53.347Z,6.10
2017-10-11T15:08:28.323Z,6.83
2017-10-11T15:10:57.424Z,2.30
2017-10-11T15:13:32.356Z,5.43
2017-10-11T15:16:01.069Z,8.30
2017-10-11T15:18:35.984Z,6.33
2017-10-11T15:21:11.691Z,6.43
2017-10-11T15:23:40.374Z,4.57
2017-10-11T15:26:15.367Z,6.03
2017-10-11T15:28:50.387Z,2.30
2017-10-11T15:31:19.101Z,9.80
2017-10-11T15:33:51.557Z,13.17
2017-10-11T15:36:20.273Z,5.93
2017-10-11T15:38:48.957Z,2.50
2017-10-11T15:41:17.654Z,6.17
2017-10-11T15:43:47.117Z,7.57
2017-10-11T15:46:22.020Z,7.47
2017-10-11T15:48:51.559Z,6.67
2017-10-11T15:51:26.300Z,3.30
2017-10-11T15:53:55.003Z,10.90
2017-10-11T15:56:23.696Z,5.53
2017-10-11T15:58:52.383Z,3.47
2017-10-11T16:01:21.826Z,5.63
2017-10-11T16:03:50.540Z,6.70
2017-10-11T16:06:25.435Z,2.43
2017-10-11T16:08:54.135Z,2.63
2017-10-11T16:11:22.807Z,5.83
2017-10-11T16:13:51.504Z,14.83
2017-10-11T16:16:21.127Z,8.73
2017-10-11T16:18:51.796Z,7.27
2017-10-11T16:21:26.797Z,9.40
2017-10-11T16:23:55.496Z,9.27
2017-10-11T16:26:25.857Z,6.70
2017-10-11T16:29:00.778Z,8.03
2017-10-11T16:31:30.260Z,4.73
2017-10-11T16:33:58.956Z,4.97
2017-10-11T16:36:27.635Z,3.60
2017-10-11T16:39:02.613Z,4.00
2017-10-11T16:41:31.413Z,11.13
2017-10-11T16:44:06.388Z,25.80
2017-10-11T16:46:42.110Z,18.13
2017-10-11T16:49:11.620Z,15.57
2017-10-11T16:51:40.365Z,11.00
2017-10-11T16:54:09.092Z,10.23
2017-10-11T16:56:44.016Z,9.90
2017-10-11T16:59:12.775Z,11.87
2017-10-11T17:01:41.456Z,19.63
2017-10-11T17:04:11.813Z,7.97
2017-10-11T17:06:46.644Z,4.27
2017-10-11T17:09:24.275Z,6.53
2017-10-11T17:11:56.298Z,7.17
2017-10-11T17:14:26.089Z,5.27
2017-10-11T17:16:54.785Z,6.50
2017-10-11T17:19:29.734Z,5.53
2017-10-11T17:22:04.743Z,6.40
2017-10-11T17:24:33.410Z,5.93
2017-10-11T17:27:08.417Z,11.23
2017-10-11T17:29:38.334Z,15.27
2017-10-11T17:32:13.340Z,7.47
2017-10-11T17:34:42.021Z,5.60
2017-10-11T17:37:11.849Z,6.23
2017-10-11T17:39:42.203Z,8.80
2017-10-11T17:42:11.697Z,4.77
2017-10-11T17:44:41.414Z,13.83
2017-10-11T17:47:10.115Z,8.00
2017-10-11T17:49:46.045Z,7.53
2017-10-11T17:52:15.992Z,7.70
2017-10-11T17:54:45.624Z,6.43
2017-10-11T17:57:14.369Z,5.83
2017-10-11T17:59:50.110Z,8.53
2017-10-11T18:02:19.103Z,5.97
2017-10-11T18:04:48.020Z,8.80
2017-10-11T18:07:16.835Z,6.90
2017-10-11T18:09:48.195Z,5.97
2017-10-11T18:12:16.935Z,12.47
2017-10-11T18:14:52.316Z,9.77
2017-10-11T18:17:23.174Z,10.03
2017-10-11T18:19:54.578Z,6.50
2017-10-11T18:22:24.094Z,11.73
2017-10-11T18:24:53.778Z,6.20
2017-10-11T18:27:28.715Z,10.83
2017-10-11T18:29:57.494Z,6.03
2017-10-11T18:32:29.455Z,10.73
2017-10-11T18:35:04.885Z,8.90
2017-10-11T18:37:33.626Z,4.40
2017-10-11T18:40:10.055Z,9.97
2017-10-11T18:42:38.994Z,4.57
2017-10-11T18:45:09.349Z,6.00
2017-10-11T18:47:38.541Z,6.03
2017-10-11T18:50:07.346Z,4.47
2017-10-11T18:52:42.416Z,8.80
2017-10-11T18:55:11.177Z,8.33
2017-10-11T18:57:46.573Z,12.17
2017-10-11T19:00:15.373Z,10.73
2017-10-11T19:02:50.509Z,11.43
2017-10-11T19:05:22.483Z,6.50
2017-10-11T19:07:51.224Z,9.07
2017-10-11T19:10:20.874Z,10.33
2017-10-11T19:12:56.116Z,8.07
2017-10-11T19:15:25.156Z,18.93
2017-10-11T19:17:54.002Z,12.50
2017-10-11T19:20:22.708Z,8.93
2017-10-11T19:22:52.462Z,8.47
2017-10-11T19:25:27.420Z,10.63
2017-10-11T19:27:59.782Z,11.33
2017-10-11T19:30:29.473Z,10.00
2017-10-11T19:32:58.209Z,12.07
2017-10-11T19:35:27.696Z,11.40
2017-10-11T19:37:56.381Z,19.03
2017-10-11T19:40:25.866Z,7.60
2017-10-11T19:43:00.662Z,7.23
2017-10-11T19:45:29.566Z,9.50
2017-10-11T19:48:04.484Z,7.13
2017-10-11T19:50:33.533Z,13.47
2017-10-11T19:53:08.646Z,9.13
2017-10-11T19:55:43.198Z,18.40
2017-10-11T19:58:18.219Z,8.37
2017-10-11T20:00:53.825Z,9.67
2017-10-11T20:03:23.577Z,10.33
2017-10-11T20:05:52.392Z,11.80
2017-10-11T20:08:22.044Z,10.10
2017-10-11T20:10:56.991Z,9.43
2017-10-11T20:13:25.690Z,16.30
2017-10-11T20:15:57.530Z,15.37
2017-10-11T20:18:32.432Z,14.07
2017-10-11T20:21:01.277Z,43.33
2017-10-11T20:23:30.259Z,13.63
2017-10-11T20:26:05.931Z,10.40
2017-10-11T20:28:35.922Z,9.23
2017-10-11T20:31:05.475Z,7.17
2017-10-11T20:33:37.068Z,10.47
2017-10-11T20:36:12.330Z,7.73
2017-10-11T20:38:42.984Z,7.00
2017-10-11T20:41:12.998Z,13.63
2017-10-11T20:43:47.994Z,8.13
2017-10-11T20:46:17.543Z,11.33
2017-10-11T20:48:46.409Z,11.43
2017-10-11T20:51:21.304Z,11.13
2017-10-11T20:53:50.095Z,9.20
2017-10-11T20:56:25.278Z,10.80
2017-10-11T20:58:54.216Z,11.23
2017-10-11T21:01:22.929Z,14.87
2017-10-11T21:03:51.620Z,7.53
2017-10-11T21:06:26.496Z,11.00
2017-10-11T21:08:55.216Z,9.13
2017-10-11T21:11:23.936Z,5.03
2017-10-11T21:13:58.948Z,10.13
2017-10-11T21:16:27.791Z,6.57
2017-10-11T21:18:56.522Z,10.30
2017-10-11T21:21:25.249Z,6.67
2017-10-11T21:24:00.191Z,10.90
2017-10-11T21:26:28.948Z,4.97
2017-10-11T21:28:57.716Z,14.20
2017-10-11T21:31:27.345Z,11.07
2017-10-11T21:33:56.029Z,13.10
2017-10-11T21:36:32.037Z,23.60
2017-10-11T21:39:00.715Z,20.37
2017-10-11T21:41:35.739Z,29.60
2017-10-11T21:44:04.435Z,32.37
2017-10-11T21:46:33.136Z,26.73
2017-10-11T21:49:01.832Z,33.90
2017-10-11T21:51:32.518Z,60.07
2017-10-11T21:54:01.337Z,76.53
2017-10-11T21:56:30.024Z,37.90
2017-10-11T21:58:58.724Z,63.30
2017-10-11T22:01:33.524Z,77.00
2017-10-11T22:04:02.216Z,28.37
2017-10-11T22:06:30.908Z,34.80
2017-10-11T22:09:06.591Z,42.60
2017-10-11T22:11:35.275Z,35.93
2017-10-11T22:14:10.927Z,38.63
2017-10-11T22:16:39.619Z,42.63
2017-10-11T22:19:09.173Z,17.87
2017-10-11T22:21:37.933Z,88.30
2017-10-11T22:24:07.416Z,16.07
2017-10-11T22:26:42.388Z,17.77
2017-10-11T22:29:11.067Z,17.60
2017-10-11T22:31:39.762Z,39.47
2017-10-11T22:34:08.457Z,39.47
2017-10-11T22:36:37.143Z,15.40
2017-10-11T22:39:05.837Z,22.50
2017-10-11T22:41:34.590Z,52.50
2017-10-11T22:44:04.107Z,24.00
2017-10-11T22:46:32.795Z,27.63
2017-10-11T22:49:01.483Z,12.07
2017-10-11T22:51:30.242Z,36.87
2017-10-11T22:54:01.816Z,10.10
2017-10-11T22:56:30.529Z,20.00
2017-10-11T22:58:59.218Z,19.67
2017-10-11T23:01:27.908Z,20.40
2017-10-11T23:03:56.646Z,18.10
2017-10-11T23:06:25.400Z,32.30
2017-10-11T23:08:54.116Z,15.90
2017-10-11T23:11:23.577Z,9.00
2017-10-11T23:13:52.329Z,18.53
2017-10-11T23:16:21.090Z,20.93
2017-10-11T23:18:50.539Z,12.47
2017-10-11T23:21:19.256Z,8.97
2017-10-11T23:23:47.936Z,11.20
2017-10-11T23:26:16.632Z,23.27
2017-10-11T23:28:45.373Z,15.93
2017-10-11T23:31:14.117Z,16.43
2017-10-11T23:33:43.658Z,29.70
2017-10-11T23:36:17.679Z,13.93
2017-10-11T23:38:46.384Z,26.90
2017-10-11T23:41:15.064Z,37.00
2017-10-11T23:43:45.630Z,24.73
2017-10-11T23:46:15.279Z,22.03
2017-10-11T23:48:44.388Z,48.23
2017-10-11T23:51:13.079Z,19.63
2017-10-11T23:53:41.765Z,18.27
2017-10-11T23:56:12.160Z,11.23
2017-10-11T23:58:40.856Z,22.50
